sensor_id;sensor_type;location;lat;lon;timestamp;temperature;humidity
56172;DHT22;42052;41.634;-0.946;2023-02-03T00:00:42;20.80;34.30
56172;DHT22;42052;41.634;-0.946;2023-02-03T00:03:28;20.80;34.30
56172;DHT22;42052;41.634;-0.946;2023-02-03T00:06:14;20.70;34.30
56172;DHT22;42052;41.634;-0.946;2023-02-03T00:09:00;20.80;34.40
56172;DHT22;42052;41.634;-0.946;2023-02-03T00:11:46;20.80;34.30
56172;DHT22;42052;41.634;-0.946;2023-02-03T00:14:32;20.70;34.30
56172;DHT22;42052;41.634;-0.946;2023-02-03T00:17:18;20.70;34.40
56172;DHT22;42052;41.634;-0.946;2023-02-03T00:20:04;20.70;34.40
56172;DHT22;42052;41.634;-0.946;2023-02-03T00:22:50;20.70;34.40
56172;DHT22;42052;41.634;-0.946;2023-02-03T00:25:37;20.70;35.10
56172;DHT22;42052;41.634;-0.946;2023-02-03T00:28:23;20.70;34.40
56172;DHT22;42052;41.634;-0.946;2023-02-03T00:31:13;20.70;34.40
56172;DHT22;42052;41.634;-0.946;2023-02-03T00:33:59;20.70;34.40
56172;DHT22;42052;41.634;-0.946;2023-02-03T00:36:45;20.70;34.40
56172;DHT22;42052;41.634;-0.946;2023-02-03T00:39:34;20.70;34.50
56172;DHT22;42052;41.634;-0.946;2023-02-03T00:42:20;20.70;34.50
56172;DHT22;42052;41.634;-0.946;2023-02-03T00:45:06;20.70;34.40
56172;DHT22;42052;41.634;-0.946;2023-02-03T00:47:52;20.70;34.50
56172;DHT22;42052;41.634;-0.946;2023-02-03T00:50:39;20.70;34.40
56172;DHT22;42052;41.634;-0.946;2023-02-03T00:53:25;20.70;34.40
56172;DHT22;42052;41.634;-0.946;2023-02-03T00:56:11;20.70;34.30
56172;DHT22;42052;41.634;-0.946;2023-02-03T00:58:57;20.60;34.40
56172;DHT22;42052;41.634;-0.946;2023-02-03T01:01:43;20.60;34.40
56172;DHT22;42052;41.634;-0.946;2023-02-03T01:04:29;20.60;34.50
56172;DHT22;42052;41.634;-0.946;2023-02-03T01:07:15;20.60;34.50
56172;DHT22;42052;41.634;-0.946;2023-02-03T01:10:01;20.60;34.40
56172;DHT22;42052;41.634;-0.946;2023-02-03T01:12:47;20.60;34.50
56172;DHT22;42052;41.634;-0.946;2023-02-03T01:15:33;20.60;34.50
56172;DHT22;42052;41.634;-0.946;2023-02-03T01:18:18;20.50;34.50
56172;DHT22;42052;41.634;-0.946;2023-02-03T01:23:52;20.50;34.40
56172;DHT22;42052;41.634;-0.946;2023-02-03T01:26:38;20.50;34.50
56172;DHT22;42052;41.634;-0.946;2023-02-03T01:29:24;20.50;34.50
56172;DHT22;42052;41.634;-0.946;2023-02-03T01:32:10;20.50;34.50
56172;DHT22;42052;41.634;-0.946;2023-02-03T01:34:56;20.50;34.50
56172;DHT22;42052;41.634;-0.946;2023-02-03T01:37:42;20.50;34.60
56172;DHT22;42052;41.634;-0.946;2023-02-03T01:40:28;20.50;34.50
56172;DHT22;42052;41.634;-0.946;2023-02-03T01:43:27;20.50;34.60
56172;DHT22;42052;41.634;-0.946;2023-02-03T01:52:26;20.40;34.50
56172;DHT22;42052;41.634;-0.946;2023-02-03T01:55:15;20.40;34.60
56172;DHT22;42052;41.634;-0.946;2023-02-03T02:00:51;20.40;34.50
56172;DHT22;42052;41.634;-0.946;2023-02-03T02:03:58;20.40;34.50
56172;DHT22;42052;41.634;-0.946;2023-02-03T02:06:43;20.40;34.50
56172;DHT22;42052;41.634;-0.946;2023-02-03T02:09:32;20.40;34.50
56172;DHT22;42052;41.634;-0.946;2023-02-03T02:12:19;20.40;34.50
56172;DHT22;42052;41.634;-0.946;2023-02-03T02:15:05;20.40;34.50
56172;DHT22;42052;41.634;-0.946;2023-02-03T02:32:29;20.30;34.40
56172;DHT22;42052;41.634;-0.946;2023-02-03T02:41:51;20.30;34.50
56172;DHT22;42052;41.634;-0.946;2023-02-03T02:44:42;20.30;35.00
56172;DHT22;42052;41.634;-0.946;2023-02-03T02:47:30;20.30;35.20
56172;DHT22;42052;41.634;-0.946;2023-02-03T02:50:18;20.30;35.40
56172;DHT22;42052;41.634;-0.946;2023-02-03T02:53:05;20.30;35.40
56172;DHT22;42052;41.634;-0.946;2023-02-03T02:55:52;20.30;35.40
56172;DHT22;42052;41.634;-0.946;2023-02-03T02:58:38;20.40;35.40
56172;DHT22;42052;41.634;-0.946;2023-02-03T03:01:25;20.40;35.40
56172;DHT22;42052;41.634;-0.946;2023-02-03T03:04:12;20.40;35.40
56172;DHT22;42052;41.634;-0.946;2023-02-03T03:07:00;20.40;35.20
56172;DHT22;42052;41.634;-0.946;2023-02-03T03:09:51;20.50;35.30
56172;DHT22;42052;41.634;-0.946;2023-02-03T03:12:39;20.40;35.30
56172;DHT22;42052;41.634;-0.946;2023-02-03T03:15:27;20.40;35.30
56172;DHT22;42052;41.634;-0.946;2023-02-03T03:18:15;20.50;35.40
56172;DHT22;42052;41.634;-0.946;2023-02-03T03:21:02;20.50;35.30
56172;DHT22;42052;41.634;-0.946;2023-02-03T03:23:51;20.50;35.40
56172;DHT22;42052;41.634;-0.946;2023-02-03T03:26:40;20.50;36.20
56172;DHT22;42052;41.634;-0.946;2023-02-03T03:32:19;20.50;35.60
56172;DHT22;42052;41.634;-0.946;2023-02-03T03:35:06;20.50;35.70
56172;DHT22;42052;41.634;-0.946;2023-02-03T03:37:56;20.50;35.60
56172;DHT22;42052;41.634;-0.946;2023-02-03T03:40:47;20.50;35.40
56172;DHT22;42052;41.634;-0.946;2023-02-03T03:43:36;20.50;35.30
56172;DHT22;42052;41.634;-0.946;2023-02-03T03:46:27;20.50;35.40
56172;DHT22;42052;41.634;-0.946;2023-02-03T03:49:15;20.50;35.40
56172;DHT22;42052;41.634;-0.946;2023-02-03T03:52:04;20.50;35.30
56172;DHT22;42052;41.634;-0.946;2023-02-03T03:54:52;20.50;35.20
56172;DHT22;42052;41.634;-0.946;2023-02-03T03:58:14;20.50;35.10
56172;DHT22;42052;41.634;-0.946;2023-02-03T04:00:51;20.50;35.10
56172;DHT22;42052;41.634;-0.946;2023-02-03T04:03:48;20.50;35.00
56172;DHT22;42052;41.634;-0.946;2023-02-03T04:06:36;20.50;35.10
56172;DHT22;42052;41.634;-0.946;2023-02-03T04:09:23;20.50;35.00
56172;DHT22;42052;41.634;-0.946;2023-02-03T04:12:13;20.50;35.00
56172;DHT22;42052;41.634;-0.946;2023-02-03T04:15:00;20.50;35.00
56172;DHT22;42052;41.634;-0.946;2023-02-03T04:17:46;20.50;35.30
56172;DHT22;42052;41.634;-0.946;2023-02-03T04:20:33;20.50;35.30
56172;DHT22;42052;41.634;-0.946;2023-02-03T04:23:19;20.50;35.20
56172;DHT22;42052;41.634;-0.946;2023-02-03T04:26:04;20.50;35.30
56172;DHT22;42052;41.634;-0.946;2023-02-03T04:28:50;20.50;35.20
56172;DHT22;42052;41.634;-0.946;2023-02-03T04:31:36;20.50;35.20
56172;DHT22;42052;41.634;-0.946;2023-02-03T04:34:23;20.50;35.20
56172;DHT22;42052;41.634;-0.946;2023-02-03T04:37:09;20.50;35.10
56172;DHT22;42052;41.634;-0.946;2023-02-03T04:39:55;20.50;35.10
56172;DHT22;42052;41.634;-0.946;2023-02-03T04:42:41;20.40;34.90
56172;DHT22;42052;41.634;-0.946;2023-02-03T04:45:27;20.50;34.80
56172;DHT22;42052;41.634;-0.946;2023-02-03T04:48:13;20.50;34.90
56172;DHT22;42052;41.634;-0.946;2023-02-03T04:51:00;20.50;34.80
56172;DHT22;42052;41.634;-0.946;2023-02-03T04:53:46;20.50;34.80
56172;DHT22;42052;41.634;-0.946;2023-02-03T04:56:32;20.50;34.60
56172;DHT22;42052;41.634;-0.946;2023-02-03T04:59:18;20.50;34.80
56172;DHT22;42052;41.634;-0.946;2023-02-03T05:02:04;20.50;35.00
56172;DHT22;42052;41.634;-0.946;2023-02-03T05:04:50;20.50;35.10
56172;DHT22;42052;41.634;-0.946;2023-02-03T05:07:36;20.50;34.90
56172;DHT22;42052;41.634;-0.946;2023-02-03T05:10:22;20.50;34.90
56172;DHT22;42052;41.634;-0.946;2023-02-03T05:13:08;20.40;35.10
56172;DHT22;42052;41.634;-0.946;2023-02-03T05:15:54;20.40;35.10
56172;DHT22;42052;41.634;-0.946;2023-02-03T05:18:40;20.40;35.00
56172;DHT22;42052;41.634;-0.946;2023-02-03T05:21:25;20.40;35.00
56172;DHT22;42052;41.634;-0.946;2023-02-03T05:24:11;20.40;35.00
56172;DHT22;42052;41.634;-0.946;2023-02-03T05:26:57;20.50;35.20
56172;DHT22;42052;41.634;-0.946;2023-02-03T05:29:43;20.50;35.20
56172;DHT22;42052;41.634;-0.946;2023-02-03T05:32:29;20.50;35.10
56172;DHT22;42052;41.634;-0.946;2023-02-03T05:35:15;20.50;35.10
56172;DHT22;42052;41.634;-0.946;2023-02-03T05:38:01;20.50;34.90
56172;DHT22;42052;41.634;-0.946;2023-02-03T05:40:48;20.50;35.10
56172;DHT22;42052;41.634;-0.946;2023-02-03T05:43:52;20.50;35.00
56172;DHT22;42052;41.634;-0.946;2023-02-03T05:46:38;20.50;35.10
56172;DHT22;42052;41.634;-0.946;2023-02-03T05:49:24;20.50;35.30
56172;DHT22;42052;41.634;-0.946;2023-02-03T05:52:10;20.50;35.30
56172;DHT22;42052;41.634;-0.946;2023-02-03T05:54:56;20.50;35.30
56172;DHT22;42052;41.634;-0.946;2023-02-03T05:57:42;20.50;35.20
56172;DHT22;42052;41.634;-0.946;2023-02-03T06:00:28;20.50;35.30
56172;DHT22;42052;41.634;-0.946;2023-02-03T06:03:14;20.50;35.00
56172;DHT22;42052;41.634;-0.946;2023-02-03T06:06:00;20.50;34.90
56172;DHT22;42052;41.634;-0.946;2023-02-03T06:08:46;20.50;34.80
56172;DHT22;42052;41.634;-0.946;2023-02-03T06:11:32;20.50;34.90
56172;DHT22;42052;41.634;-0.946;2023-02-03T06:14:18;20.50;34.60
56172;DHT22;42052;41.634;-0.946;2023-02-03T06:17:04;20.50;34.80
56172;DHT22;42052;41.634;-0.946;2023-02-03T06:19:50;20.50;34.80
56172;DHT22;42052;41.634;-0.946;2023-02-03T06:22:36;20.50;34.60
56172;DHT22;42052;41.634;-0.946;2023-02-03T06:25:22;20.50;34.60
56172;DHT22;42052;41.634;-0.946;2023-02-03T06:28:08;20.50;34.60
56172;DHT22;42052;41.634;-0.946;2023-02-03T06:30:54;20.50;34.70
56172;DHT22;42052;41.634;-0.946;2023-02-03T06:33:41;20.50;34.50
56172;DHT22;42052;41.634;-0.946;2023-02-03T06:36:26;20.50;34.50
56172;DHT22;42052;41.634;-0.946;2023-02-03T06:39:12;20.50;34.40
56172;DHT22;42052;41.634;-0.946;2023-02-03T06:41:58;20.60;34.50
56172;DHT22;42052;41.634;-0.946;2023-02-03T06:44:44;20.60;34.30
56172;DHT22;42052;41.634;-0.946;2023-02-03T06:47:30;20.50;33.80
56172;DHT22;42052;41.634;-0.946;2023-02-03T06:50:16;20.60;34.00
56172;DHT22;42052;41.634;-0.946;2023-02-03T06:53:02;20.60;34.30
56172;DHT22;42052;41.634;-0.946;2023-02-03T06:55:48;20.60;34.30
56172;DHT22;42052;41.634;-0.946;2023-02-03T06:58:34;20.50;34.30
56172;DHT22;42052;41.634;-0.946;2023-02-03T07:01:20;20.60;34.40
56172;DHT22;42052;41.634;-0.946;2023-02-03T07:04:06;20.60;34.40
56172;DHT22;42052;41.634;-0.946;2023-02-03T07:06:52;20.60;34.30
56172;DHT22;42052;41.634;-0.946;2023-02-03T07:09:38;20.60;34.20
56172;DHT22;42052;41.634;-0.946;2023-02-03T07:12:25;20.60;34.10
56172;DHT22;42052;41.634;-0.946;2023-02-03T07:15:11;20.60;34.00
56172;DHT22;42052;41.634;-0.946;2023-02-03T07:17:57;20.60;34.00
56172;DHT22;42052;41.634;-0.946;2023-02-03T07:20:43;20.60;34.20
56172;DHT22;42052;41.634;-0.946;2023-02-03T07:23:29;20.50;34.00
56172;DHT22;42052;41.634;-0.946;2023-02-03T07:26:15;20.50;33.80
56172;DHT22;42052;41.634;-0.946;2023-02-03T07:29:01;20.60;33.70
56172;DHT22;42052;41.634;-0.946;2023-02-03T07:31:47;20.50;33.80
56172;DHT22;42052;41.634;-0.946;2023-02-03T07:34:33;20.50;33.90
56172;DHT22;42052;41.634;-0.946;2023-02-03T07:37:19;20.50;33.80
56172;DHT22;42052;41.634;-0.946;2023-02-03T07:40:05;20.50;33.90
56172;DHT22;42052;41.634;-0.946;2023-02-03T07:42:51;20.50;33.90
56172;DHT22;42052;41.634;-0.946;2023-02-03T07:45:37;20.50;33.80
56172;DHT22;42052;41.634;-0.946;2023-02-03T07:48:23;20.40;33.70
56172;DHT22;42052;41.634;-0.946;2023-02-03T07:51:09;20.40;33.60
56172;DHT22;42052;41.634;-0.946;2023-02-03T07:53:56;20.40;33.60
56172;DHT22;42052;41.634;-0.946;2023-02-03T07:56:42;20.40;33.60
56172;DHT22;42052;41.634;-0.946;2023-02-03T07:59:28;20.30;33.50
56172;DHT22;42052;41.634;-0.946;2023-02-03T08:02:14;20.40;33.60
56172;DHT22;42052;41.634;-0.946;2023-02-03T08:05:00;20.40;33.60
56172;DHT22;42052;41.634;-0.946;2023-02-03T08:07:45;20.40;33.70
56172;DHT22;42052;41.634;-0.946;2023-02-03T08:10:31;20.30;33.80
56172;DHT22;42052;41.634;-0.946;2023-02-03T08:13:17;20.30;33.70
56172;DHT22;42052;41.634;-0.946;2023-02-03T08:16:03;20.30;33.70
56172;DHT22;42052;41.634;-0.946;2023-02-03T08:18:49;20.30;33.50
56172;DHT22;42052;41.634;-0.946;2023-02-03T08:21:35;20.30;33.60
56172;DHT22;42052;41.634;-0.946;2023-02-03T08:24:21;20.30;33.70
56172;DHT22;42052;41.634;-0.946;2023-02-03T08:27:07;20.30;33.50
56172;DHT22;42052;41.634;-0.946;2023-02-03T08:29:53;20.20;33.50
56172;DHT22;42052;41.634;-0.946;2023-02-03T08:32:39;20.20;33.50
56172;DHT22;42052;41.634;-0.946;2023-02-03T08:35:25;20.20;33.50
56172;DHT22;42052;41.634;-0.946;2023-02-03T08:38:11;20.20;33.50
56172;DHT22;42052;41.634;-0.946;2023-02-03T08:40:57;20.20;33.40
56172;DHT22;42052;41.634;-0.946;2023-02-03T08:43:43;20.20;33.40
56172;DHT22;42052;41.634;-0.946;2023-02-03T08:46:30;20.20;33.50
56172;DHT22;42052;41.634;-0.946;2023-02-03T08:49:16;20.20;33.00
56172;DHT22;42052;41.634;-0.946;2023-02-03T08:52:02;20.20;33.10
56172;DHT22;42052;41.634;-0.946;2023-02-03T08:54:48;20.20;33.30
56172;DHT22;42052;41.634;-0.946;2023-02-03T08:57:34;20.10;33.20
56172;DHT22;42052;41.634;-0.946;2023-02-03T09:00:21;20.10;33.20
56172;DHT22;42052;41.634;-0.946;2023-02-03T09:03:07;20.10;33.30
56172;DHT22;42052;41.634;-0.946;2023-02-03T09:05:52;20.10;33.40
56172;DHT22;42052;41.634;-0.946;2023-02-03T09:08:38;20.10;33.40
56172;DHT22;42052;41.634;-0.946;2023-02-03T09:11:24;20.00;33.40
56172;DHT22;42052;41.634;-0.946;2023-02-03T09:14:10;20.00;33.30
56172;DHT22;42052;41.634;-0.946;2023-02-03T09:16:56;20.00;33.40
56172;DHT22;42052;41.634;-0.946;2023-02-03T09:19:42;20.00;33.30
56172;DHT22;42052;41.634;-0.946;2023-02-03T09:22:28;20.00;33.30
56172;DHT22;42052;41.634;-0.946;2023-02-03T09:25:14;20.00;33.30
56172;DHT22;42052;41.634;-0.946;2023-02-03T09:28:01;20.00;32.90
56172;DHT22;42052;41.634;-0.946;2023-02-03T09:30:47;20.00;32.90
56172;DHT22;42052;41.634;-0.946;2023-02-03T09:33:33;20.00;32.70
56172;DHT22;42052;41.634;-0.946;2023-02-03T09:36:19;20.00;32.80
56172;DHT22;42052;41.634;-0.946;2023-02-03T09:39:05;20.10;32.80
56172;DHT22;42052;41.634;-0.946;2023-02-03T09:44:42;20.00;32.80
56172;DHT22;42052;41.634;-0.946;2023-02-03T09:47:34;20.00;32.70
56172;DHT22;42052;41.634;-0.946;2023-02-03T09:50:23;20.00;32.70
56172;DHT22;42052;41.634;-0.946;2023-02-03T09:53:22;20.00;32.60
56172;DHT22;42052;41.634;-0.946;2023-02-03T09:56:31;20.00;32.70
56172;DHT22;42052;41.634;-0.946;2023-02-03T09:59:15;20.00;32.70
56172;DHT22;42052;41.634;-0.946;2023-02-03T10:02:25;20.00;32.80
56172;DHT22;42052;41.634;-0.946;2023-02-03T10:05:19;20.00;32.90
56172;DHT22;42052;41.634;-0.946;2023-02-03T10:19:50;20.00;32.90
56172;DHT22;42052;41.634;-0.946;2023-02-03T10:22:44;20.00;33.00
56172;DHT22;42052;41.634;-0.946;2023-02-03T10:25:34;20.00;33.10
56172;DHT22;42052;41.634;-0.946;2023-02-03T10:28:22;20.00;33.00
56172;DHT22;42052;41.634;-0.946;2023-02-03T10:31:13;20.00;33.10
56172;DHT22;42052;41.634;-0.946;2023-02-03T10:34:11;19.90;33.10
56172;DHT22;42052;41.634;-0.946;2023-02-03T10:37:01;20.00;33.10
56172;DHT22;42052;41.634;-0.946;2023-02-03T10:39:48;20.00;33.10
56172;DHT22;42052;41.634;-0.946;2023-02-03T10:42:34;20.00;33.30
56172;DHT22;42052;41.634;-0.946;2023-02-03T10:45:39;19.90;33.30
56172;DHT22;42052;41.634;-0.946;2023-02-03T10:48:25;20.00;33.30
56172;DHT22;42052;41.634;-0.946;2023-02-03T10:51:16;20.00;33.30
56172;DHT22;42052;41.634;-0.946;2023-02-03T10:54:03;20.00;33.30
56172;DHT22;42052;41.634;-0.946;2023-02-03T10:56:49;20.00;33.10
56172;DHT22;42052;41.634;-0.946;2023-02-03T10:59:35;20.00;33.30
56172;DHT22;42052;41.634;-0.946;2023-02-03T11:02:28;20.00;33.30
56172;DHT22;42052;41.634;-0.946;2023-02-03T11:08:00;20.00;33.60
56172;DHT22;42052;41.634;-0.946;2023-02-03T11:10:47;20.00;33.50
56172;DHT22;42052;41.634;-0.946;2023-02-03T11:13:32;20.00;33.50
56172;DHT22;42052;41.634;-0.946;2023-02-03T11:16:18;20.00;33.60
56172;DHT22;42052;41.634;-0.946;2023-02-03T11:19:17;20.00;33.40
56172;DHT22;42052;41.634;-0.946;2023-02-03T11:22:05;20.00;33.50
56172;DHT22;42052;41.634;-0.946;2023-02-03T11:24:51;20.00;33.50
56172;DHT22;42052;41.634;-0.946;2023-02-03T11:27:37;20.00;33.50
56172;DHT22;42052;41.634;-0.946;2023-02-03T11:30:24;20.00;33.50
56172;DHT22;42052;41.634;-0.946;2023-02-03T11:33:19;20.10;33.50
56172;DHT22;42052;41.634;-0.946;2023-02-03T11:36:08;20.00;33.40
56172;DHT22;42052;41.634;-0.946;2023-02-03T11:42:00;20.00;33.50
56172;DHT22;42052;41.634;-0.946;2023-02-03T11:44:48;20.00;33.40
56172;DHT22;42052;41.634;-0.946;2023-02-03T11:47:34;20.10;33.60
56172;DHT22;42052;41.634;-0.946;2023-02-03T11:50:23;20.10;33.60
56172;DHT22;42052;41.634;-0.946;2023-02-03T12:07:48;20.10;33.50
56172;DHT22;42052;41.634;-0.946;2023-02-03T12:19:22;20.10;33.60
56172;DHT22;42052;41.634;-0.946;2023-02-03T12:25:17;20.10;33.40
56172;DHT22;42052;41.634;-0.946;2023-02-03T12:31:30;20.10;33.40
56172;DHT22;42052;41.634;-0.946;2023-02-03T12:34:33;20.10;33.50
56172;DHT22;42052;41.634;-0.946;2023-02-03T12:37:26;20.10;33.40
56172;DHT22;42052;41.634;-0.946;2023-02-03T12:40:18;20.10;33.40
56172;DHT22;42052;41.634;-0.946;2023-02-03T12:46:29;20.10;33.30
56172;DHT22;42052;41.634;-0.946;2023-02-03T12:52:29;20.10;33.50
56172;DHT22;42052;41.634;-0.946;2023-02-03T12:55:27;20.10;33.40
56172;DHT22;42052;41.634;-0.946;2023-02-03T12:58:30;20.10;33.40
56172;DHT22;42052;41.634;-0.946;2023-02-03T13:01:22;20.10;33.30
56172;DHT22;42052;41.634;-0.946;2023-02-03T13:04:10;20.10;33.30
56172;DHT22;42052;41.634;-0.946;2023-02-03T13:09:57;20.10;33.30
56172;DHT22;42052;41.634;-0.946;2023-02-03T13:12:46;20.10;33.30
56172;DHT22;42052;41.634;-0.946;2023-02-03T13:15:38;20.10;33.30
56172;DHT22;42052;41.634;-0.946;2023-02-03T13:21:11;20.10;33.20
56172;DHT22;42052;41.634;-0.946;2023-02-03T13:23:57;20.10;33.30
56172;DHT22;42052;41.634;-0.946;2023-02-03T13:29:40;20.20;33.20
56172;DHT22;42052;41.634;-0.946;2023-02-03T13:33:14;20.10;33.30
56172;DHT22;42052;41.634;-0.946;2023-02-03T13:41:52;20.20;33.20
56172;DHT22;42052;41.634;-0.946;2023-02-03T13:44:39;20.20;33.20
56172;DHT22;42052;41.634;-0.946;2023-02-03T13:47:27;20.20;33.20
56172;DHT22;42052;41.634;-0.946;2023-02-03T13:50:24;20.20;33.10
56172;DHT22;42052;41.634;-0.946;2023-02-03T13:53:14;20.20;33.10
56172;DHT22;42052;41.634;-0.946;2023-02-03T13:56:01;20.20;33.10
56172;DHT22;42052;41.634;-0.946;2023-02-03T13:58:59;20.20;33.10
56172;DHT22;42052;41.634;-0.946;2023-02-03T14:01:45;20.20;33.30
56172;DHT22;42052;41.634;-0.946;2023-02-03T14:10:21;20.20;33.00
56172;DHT22;42052;41.634;-0.946;2023-02-03T14:13:18;20.20;33.20
56172;DHT22;42052;41.634;-0.946;2023-02-03T14:16:39;20.20;33.10
56172;DHT22;42052;41.634;-0.946;2023-02-03T14:22:07;20.20;33.10
56172;DHT22;42052;41.634;-0.946;2023-02-03T14:24:53;20.30;33.20
56172;DHT22;42052;41.634;-0.946;2023-02-03T14:27:41;20.20;33.00
56172;DHT22;42052;41.634;-0.946;2023-02-03T14:30:27;20.20;33.10
56172;DHT22;42052;41.634;-0.946;2023-02-03T14:33:13;20.30;33.00
56172;DHT22;42052;41.634;-0.946;2023-02-03T14:35:59;20.20;32.90
56172;DHT22;42052;41.634;-0.946;2023-02-03T14:38:45;20.30;33.00
56172;DHT22;42052;41.634;-0.946;2023-02-03T14:41:43;20.30;33.00
56172;DHT22;42052;41.634;-0.946;2023-02-03T14:59:01;20.40;33.50
56172;DHT22;42052;41.634;-0.946;2023-02-03T15:04:37;20.40;33.50
56172;DHT22;42052;41.634;-0.946;2023-02-03T15:07:34;20.40;33.40
56172;DHT22;42052;41.634;-0.946;2023-02-03T15:10:22;20.40;33.20
56172;DHT22;42052;41.634;-0.946;2023-02-03T15:13:25;20.50;33.20
56172;DHT22;42052;41.634;-0.946;2023-02-03T15:16:12;20.40;33.10
56172;DHT22;42052;41.634;-0.946;2023-02-03T15:19:00;20.40;33.10
56172;DHT22;42052;41.634;-0.946;2023-02-03T15:21:53;20.50;33.20
56172;DHT22;42052;41.634;-0.946;2023-02-03T15:24:39;20.50;33.10
56172;DHT22;42052;41.634;-0.946;2023-02-03T15:27:26;20.50;33.20
56172;DHT22;42052;41.634;-0.946;2023-02-03T15:30:14;20.50;33.30
56172;DHT22;42052;41.634;-0.946;2023-02-03T15:33:04;20.50;33.20
56172;DHT22;42052;41.634;-0.946;2023-02-03T15:35:55;20.50;33.30
56172;DHT22;42052;41.634;-0.946;2023-02-03T15:38:44;20.50;33.20
56172;DHT22;42052;41.634;-0.946;2023-02-03T15:41:32;20.50;33.20
56172;DHT22;42052;41.634;-0.946;2023-02-03T15:44:29;20.50;33.20
56172;DHT22;42052;41.634;-0.946;2023-02-03T15:47:21;20.50;33.20
56172;DHT22;42052;41.634;-0.946;2023-02-03T15:52:58;20.50;33.20
56172;DHT22;42052;41.634;-0.946;2023-02-03T15:55:48;20.60;33.30
56172;DHT22;42052;41.634;-0.946;2023-02-03T15:58:39;20.60;33.30
56172;DHT22;42052;41.634;-0.946;2023-02-03T16:01:29;20.60;33.20
56172;DHT22;42052;41.634;-0.946;2023-02-03T16:04:15;20.60;33.20
56172;DHT22;42052;41.634;-0.946;2023-02-03T16:07:01;20.60;33.20
56172;DHT22;42052;41.634;-0.946;2023-02-03T16:09:51;20.60;33.20
56172;DHT22;42052;41.634;-0.946;2023-02-03T16:12:37;20.60;33.30
56172;DHT22;42052;41.634;-0.946;2023-02-03T16:15:23;20.70;33.40
56172;DHT22;42052;41.634;-0.946;2023-02-03T16:18:14;20.60;33.40
56172;DHT22;42052;41.634;-0.946;2023-02-03T16:21:03;20.60;33.50
56172;DHT22;42052;41.634;-0.946;2023-02-03T16:23:49;20.70;33.50
56172;DHT22;42052;41.634;-0.946;2023-02-03T16:26:35;20.70;33.60
56172;DHT22;42052;41.634;-0.946;2023-02-03T16:29:27;20.70;33.40
56172;DHT22;42052;41.634;-0.946;2023-02-03T16:32:32;20.70;33.70
56172;DHT22;42052;41.634;-0.946;2023-02-03T16:35:37;20.70;34.30
56172;DHT22;42052;41.634;-0.946;2023-02-03T16:38:44;20.70;34.90
56172;DHT22;42052;41.634;-0.946;2023-02-03T16:41:49;20.70;35.10
56172;DHT22;42052;41.634;-0.946;2023-02-03T16:44:54;20.70;35.40
56172;DHT22;42052;41.634;-0.946;2023-02-03T16:47:59;20.70;35.70
56172;DHT22;42052;41.634;-0.946;2023-02-03T16:51:04;20.70;35.60
56172;DHT22;42052;41.634;-0.946;2023-02-03T16:53:51;20.70;36.20
56172;DHT22;42052;41.634;-0.946;2023-02-03T16:56:37;20.70;36.50
56172;DHT22;42052;41.634;-0.946;2023-02-03T16:59:23;20.70;37.50
56172;DHT22;42052;41.634;-0.946;2023-02-03T17:02:09;20.70;37.70
56172;DHT22;42052;41.634;-0.946;2023-02-03T17:04:55;20.70;37.90
56172;DHT22;42052;41.634;-0.946;2023-02-03T17:07:41;20.70;38.20
56172;DHT22;42052;41.634;-0.946;2023-02-03T17:10:27;20.70;38.20
56172;DHT22;42052;41.634;-0.946;2023-02-03T17:13:13;20.70;38.30
56172;DHT22;42052;41.634;-0.946;2023-02-03T17:16:00;20.70;38.20
56172;DHT22;42052;41.634;-0.946;2023-02-03T17:18:46;20.70;37.90
56172;DHT22;42052;41.634;-0.946;2023-02-03T17:21:32;20.70;37.40
56172;DHT22;42052;41.634;-0.946;2023-02-03T17:24:18;20.70;38.00
56172;DHT22;42052;41.634;-0.946;2023-02-03T17:27:04;20.70;38.20
56172;DHT22;42052;41.634;-0.946;2023-02-03T17:29:50;20.60;38.00
56172;DHT22;42052;41.634;-0.946;2023-02-03T17:32:36;20.70;38.50
56172;DHT22;42052;41.634;-0.946;2023-02-03T17:35:22;20.70;38.70
56172;DHT22;42052;41.634;-0.946;2023-02-03T17:38:08;20.70;38.90
56172;DHT22;42052;41.634;-0.946;2023-02-03T17:40:54;20.70;38.70
56172;DHT22;42052;41.634;-0.946;2023-02-03T17:43:41;20.70;38.70
56172;DHT22;42052;41.634;-0.946;2023-02-03T17:46:27;20.70;38.70
56172;DHT22;42052;41.634;-0.946;2023-02-03T17:49:13;20.70;38.70
56172;DHT22;42052;41.634;-0.946;2023-02-03T17:51:59;20.70;38.60
56172;DHT22;42052;41.634;-0.946;2023-02-03T17:54:45;20.70;38.70
56172;DHT22;42052;41.634;-0.946;2023-02-03T17:57:31;20.70;38.50
56172;DHT22;42052;41.634;-0.946;2023-02-03T18:00:18;20.70;38.50
56172;DHT22;42052;41.634;-0.946;2023-02-03T18:03:04;20.70;38.50
56172;DHT22;42052;41.634;-0.946;2023-02-03T18:05:50;20.70;38.30
56172;DHT22;42052;41.634;-0.946;2023-02-03T18:08:36;20.70;38.20
56172;DHT22;42052;41.634;-0.946;2023-02-03T18:11:22;20.70;38.10
56172;DHT22;42052;41.634;-0.946;2023-02-03T18:14:08;20.70;38.00
56172;DHT22;42052;41.634;-0.946;2023-02-03T18:16:55;20.70;38.00
56172;DHT22;42052;41.634;-0.946;2023-02-03T18:19:41;20.70;37.90
56172;DHT22;42052;41.634;-0.946;2023-02-03T18:22:28;20.70;37.80
56172;DHT22;42052;41.634;-0.946;2023-02-03T18:25:13;20.70;37.90
56172;DHT22;42052;41.634;-0.946;2023-02-03T18:28:01;20.70;37.90
56172;DHT22;42052;41.634;-0.946;2023-02-03T18:30:48;20.70;37.80
56172;DHT22;42052;41.634;-0.946;2023-02-03T18:33:35;20.70;37.70
56172;DHT22;42052;41.634;-0.946;2023-02-03T18:36:21;20.70;37.50
56172;DHT22;42052;41.634;-0.946;2023-02-03T18:39:07;20.70;37.60
56172;DHT22;42052;41.634;-0.946;2023-02-03T18:41:53;20.70;37.60
56172;DHT22;42052;41.634;-0.946;2023-02-03T18:44:39;20.70;37.60
56172;DHT22;42052;41.634;-0.946;2023-02-03T18:47:25;20.70;37.50
56172;DHT22;42052;41.634;-0.946;2023-02-03T18:50:11;20.70;37.50
56172;DHT22;42052;41.634;-0.946;2023-02-03T18:52:57;20.70;37.50
56172;DHT22;42052;41.634;-0.946;2023-02-03T18:55:43;20.70;37.50
56172;DHT22;42052;41.634;-0.946;2023-02-03T18:58:29;20.80;37.50
56172;DHT22;42052;41.634;-0.946;2023-02-03T19:01:19;20.70;37.40
56172;DHT22;42052;41.634;-0.946;2023-02-03T19:04:06;20.80;37.40
56172;DHT22;42052;41.634;-0.946;2023-02-03T19:06:52;20.80;37.10
56172;DHT22;42052;41.634;-0.946;2023-02-03T19:09:38;20.80;37.00
56172;DHT22;42052;41.634;-0.946;2023-02-03T19:12:24;20.80;36.90
56172;DHT22;42052;41.634;-0.946;2023-02-03T19:15:11;20.80;36.90
56172;DHT22;42052;41.634;-0.946;2023-02-03T19:17:56;20.80;37.00
56172;DHT22;42052;41.634;-0.946;2023-02-03T19:20:42;20.80;36.80
56172;DHT22;42052;41.634;-0.946;2023-02-03T19:23:29;20.80;36.70
56172;DHT22;42052;41.634;-0.946;2023-02-03T19:26:15;20.80;36.60
56172;DHT22;42052;41.634;-0.946;2023-02-03T19:29:01;20.80;36.60
56172;DHT22;42052;41.634;-0.946;2023-02-03T19:31:47;20.90;36.60
56172;DHT22;42052;41.634;-0.946;2023-02-03T19:34:33;20.80;36.40
56172;DHT22;42052;41.634;-0.946;2023-02-03T19:37:19;20.80;36.40
56172;DHT22;42052;41.634;-0.946;2023-02-03T19:40:05;20.80;36.40